createdAt,value
2019-05-19T00:00:35.850Z,15.20
2019-05-19T00:03:05.601Z,14.87
2019-05-19T00:05:35.286Z,14.83
2019-05-19T00:08:04.955Z,13.85
2019-05-19T00:10:34.637Z,14.53
2019-05-19T00:13:04.247Z,13.98
2019-05-19T00:15:34.012Z,13.40
2019-05-19T00:18:03.624Z,14.15
2019-05-19T00:20:33.268Z,15.48
2019-05-19T00:23:02.857Z,13.53
2019-05-19T00:25:32.745Z,14.98
2019-05-19T00:28:02.311Z,14.47
2019-05-19T00:30:32.062Z,14.60
2019-05-19T00:33:01.660Z,17.12
2019-05-19T00:35:31.365Z,17.37
2019-05-19T00:38:01.121Z,17.07
2019-05-19T00:40:33.025Z,18.17
2019-05-19T00:43:02.614Z,17.55
2019-05-19T00:45:32.245Z,18.77
2019-05-19T00:48:01.827Z,20.90
2019-05-19T00:50:32.713Z,19.98
2019-05-19T00:53:02.313Z,20.62
2019-05-19T00:55:32.049Z,20.57
2019-05-19T00:58:04.134Z,21.70
2019-05-19T01:00:33.844Z,22.20
2019-05-19T01:03:03.510Z,20.00
2019-05-19T01:05:33.181Z,20.62
2019-05-19T01:08:03.364Z,20.40
2019-05-19T01:10:32.985Z,20.97
2019-05-19T01:13:02.681Z,20.45
2019-05-19T01:15:32.309Z,25.27
2019-05-19T01:18:02.217Z,21.15
2019-05-19T01:20:31.834Z,22.52
2019-05-19T01:23:01.426Z,23.90
2019-05-19T01:25:31.163Z,23.83
2019-05-19T01:28:00.749Z,22.55
2019-05-19T01:30:30.469Z,20.68
2019-05-19T01:33:00.063Z,22.67
2019-05-19T01:35:29.730Z,22.90
2019-05-19T01:37:59.308Z,18.73
2019-05-19T01:40:28.993Z,22.37
2019-05-19T01:42:58.575Z,20.90
2019-05-19T01:45:28.312Z,20.97
2019-05-19T01:47:57.902Z,23.47
2019-05-19T01:50:27.546Z,20.17
2019-05-19T01:52:57.157Z,18.77
2019-05-19T01:55:26.796Z,20.45
2019-05-19T01:57:56.452Z,20.90
2019-05-19T02:00:26.271Z,20.92
2019-05-19T02:02:55.914Z,20.27
2019-05-19T02:05:25.571Z,23.25
2019-05-19T02:07:55.176Z,22.98
2019-05-19T02:10:24.819Z,21.42
2019-05-19T02:12:54.427Z,20.50
2019-05-19T02:15:24.211Z,22.48
2019-05-19T02:17:53.823Z,22.75
2019-05-19T02:20:32.783Z,21.82
2019-05-19T02:22:54.732Z,21.57
2019-05-19T02:25:24.379Z,23.40
2019-05-19T02:27:54.093Z,23.75
2019-05-19T02:30:23.715Z,24.20
2019-05-19T02:32:53.298Z,23.62
2019-05-19T02:35:22.947Z,22.07
2019-05-19T02:37:52.552Z,24.27
2019-05-19T02:40:22.280Z,25.27
2019-05-19T02:42:54.277Z,28.30
2019-05-19T02:45:25.817Z,24.80
2019-05-19T02:47:55.632Z,23.67
2019-05-19T02:50:27.180Z,27.10
2019-05-19T02:52:59.171Z,25.20
2019-05-19T02:55:29.526Z,25.15
2019-05-19T02:58:00.100Z,26.23
2019-05-19T03:00:38.287Z,26.17
2019-05-19T03:03:08.105Z,24.80
2019-05-19T03:05:38.227Z,25.52
2019-05-19T03:08:07.900Z,26.35
2019-05-19T03:10:37.532Z,27.42
2019-05-19T03:13:07.122Z,25.70
2019-05-19T03:15:36.786Z,26.87
2019-05-19T03:18:06.410Z,26.15
2019-05-19T03:20:37.905Z,25.50
2019-05-19T03:23:07.513Z,26.82
2019-05-19T03:25:37.250Z,25.15
2019-05-19T03:28:06.833Z,27.40
2019-05-19T03:30:58.247Z,25.52
2019-05-19T03:33:30.049Z,24.80
2019-05-19T03:35:59.720Z,27.67
2019-05-19T03:38:29.329Z,24.43
2019-05-19T03:40:58.937Z,21.90
2019-05-19T03:43:28.573Z,20.43
2019-05-19T03:45:58.193Z,20.17
2019-05-19T03:48:27.825Z,18.23
2019-05-19T03:50:57.409Z,20.80
2019-05-19T03:53:27.151Z,18.65
2019-05-19T03:55:56.749Z,20.23
2019-05-19T03:58:26.500Z,18.20
2019-05-19T04:00:56.149Z,20.00
2019-05-19T04:03:25.773Z,18.50
2019-05-19T04:05:55.451Z,19.35
2019-05-19T04:08:25.090Z,19.05
2019-05-19T04:10:54.751Z,19.37
2019-05-19T04:13:24.462Z,17.40
2019-05-19T04:15:54.168Z,20.97
2019-05-19T04:18:23.827Z,17.73
2019-05-19T04:20:53.422Z,17.82
2019-05-19T04:23:23.089Z,18.67
2019-05-19T04:25:52.669Z,17.90
2019-05-19T04:28:22.289Z,17.17
2019-05-19T04:30:52.093Z,14.40
2019-05-19T04:33:21.707Z,18.02
2019-05-19T04:35:51.306Z,16.17
2019-05-19T04:38:20.963Z,19.12
2019-05-19T04:40:50.588Z,16.93
2019-05-19T04:43:20.255Z,17.40
2019-05-19T04:45:49.912Z,18.62
2019-05-19T04:48:19.548Z,18.87
2019-05-19T04:50:49.234Z,17.05
2019-05-19T04:53:18.885Z,17.62
2019-05-19T04:55:48.536Z,16.60
2019-05-19T04:58:18.434Z,16.35
2019-05-19T05:00:48.013Z,16.02
2019-05-19T05:03:18.844Z,17.05
2019-05-19T05:05:48.465Z,16.30
2019-05-19T05:08:29.723Z,16.60
2019-05-19T05:10:49.359Z,16.80
2019-05-19T05:13:19.040Z,16.12
2019-05-19T05:15:48.628Z,15.90
2019-05-19T05:18:18.284Z,18.27
2019-05-19T05:20:47.927Z,14.68
2019-05-19T05:23:17.569Z,17.62
2019-05-19T05:25:47.809Z,16.45
2019-05-19T05:28:17.433Z,15.23
2019-05-19T05:30:47.545Z,15.40
2019-05-19T05:33:17.192Z,14.95
2019-05-19T05:35:46.907Z,14.00
2019-05-19T05:38:16.596Z,13.83
2019-05-19T05:40:46.316Z,13.75
2019-05-19T05:43:16.035Z,15.80
2019-05-19T05:45:45.633Z,14.95
2019-05-19T05:48:15.286Z,12.28
2019-05-19T05:50:44.968Z,13.93
2019-05-19T05:53:14.742Z,13.62
2019-05-19T05:55:44.346Z,11.90
2019-05-19T05:58:14.536Z,12.05
2019-05-19T06:00:44.151Z,11.18
2019-05-19T06:03:21.239Z,10.63
2019-05-19T06:05:52.374Z,10.90
2019-05-19T06:08:22.326Z,11.12
2019-05-19T06:10:52.029Z,11.25
2019-05-19T06:13:21.628Z,10.10
2019-05-19T06:15:51.727Z,10.32
2019-05-19T06:18:21.385Z,10.35
2019-05-19T06:20:53.326Z,13.23
2019-05-19T06:23:23.002Z,8.17
2019-05-19T06:25:54.001Z,9.87
2019-05-19T06:28:25.278Z,9.57
2019-05-19T06:30:54.861Z,9.03
2019-05-19T06:33:25.082Z,8.23
2019-05-19T06:35:57.923Z,10.40
2019-05-19T06:38:27.972Z,9.67
2019-05-19T06:40:57.689Z,10.63
2019-05-19T06:43:27.913Z,10.10
2019-05-19T06:45:57.776Z,11.27
2019-05-19T06:48:27.966Z,9.30
2019-05-19T06:50:59.584Z,9.97
2019-05-19T06:53:29.238Z,9.80
2019-05-19T06:55:59.009Z,9.20
2019-05-19T06:58:28.742Z,9.47
2019-05-19T07:00:59.219Z,10.37
2019-05-19T07:03:29.397Z,12.50
2019-05-19T07:05:59.050Z,10.43
2019-05-19T07:08:29.226Z,9.97
2019-05-19T07:10:59.355Z,9.67
2019-05-19T07:13:28.993Z,9.53
2019-05-19T07:15:58.926Z,9.00
2019-05-19T07:18:29.519Z,8.53
2019-05-19T07:20:59.214Z,8.00
2019-05-19T07:23:29.078Z,7.77
2019-05-19T07:25:58.814Z,7.30
2019-05-19T07:28:28.418Z,6.90
2019-05-19T07:30:58.127Z,7.43
2019-05-19T07:33:27.771Z,7.30
2019-05-19T07:35:57.408Z,6.80
2019-05-19T07:38:27.002Z,6.40
2019-05-19T07:40:56.789Z,7.20
2019-05-19T07:43:26.418Z,5.30
2019-05-19T07:45:56.286Z,5.80
2019-05-19T07:48:25.891Z,6.93
2019-05-19T07:50:55.924Z,7.30
2019-05-19T07:53:25.580Z,5.40
2019-05-19T07:55:55.364Z,6.77
2019-05-19T07:58:24.983Z,6.23
2019-05-19T08:00:54.653Z,6.03
2019-05-19T08:03:24.338Z,5.63
2019-05-19T08:05:56.917Z,5.97
2019-05-19T08:08:25.285Z,6.10
2019-05-19T08:10:54.940Z,5.20
2019-05-19T08:13:24.524Z,4.67
2019-05-19T08:15:54.266Z,8.83
2019-05-19T08:18:26.176Z,7.00
2019-05-19T08:20:55.795Z,7.57
2019-05-19T08:23:25.993Z,6.70
2019-05-19T08:25:55.637Z,6.23
2019-05-19T08:28:25.293Z,4.57
2019-05-19T08:30:55.512Z,9.33
2019-05-19T08:33:25.148Z,5.03
2019-05-19T08:35:54.808Z,6.30
2019-05-19T08:38:24.409Z,4.60
2019-05-19T08:40:54.501Z,6.67
2019-05-19T08:43:24.207Z,5.93
2019-05-19T08:45:54.075Z,5.20
2019-05-19T08:48:23.711Z,5.30
2019-05-19T08:50:53.464Z,6.53
2019-05-19T08:53:23.090Z,5.50
2019-05-19T08:55:53.092Z,5.50
2019-05-19T08:58:23.505Z,5.60
2019-05-19T09:00:53.160Z,5.73
2019-05-19T09:03:22.942Z,5.40
2019-05-19T09:05:55.190Z,5.50
2019-05-19T09:08:24.916Z,5.97
2019-05-19T09:10:54.636Z,6.43
2019-05-19T09:13:24.277Z,5.67
2019-05-19T09:15:54.020Z,6.33
2019-05-19T09:18:23.655Z,4.70
2019-05-19T09:20:53.343Z,6.20
2019-05-19T09:23:22.961Z,5.20
2019-05-19T09:25:52.640Z,7.30
2019-05-19T09:28:24.347Z,5.50
2019-05-19T09:30:54.028Z,6.63
2019-05-19T09:33:23.767Z,6.70
2019-05-19T09:35:53.541Z,5.97
2019-05-19T09:38:23.228Z,6.37
2019-05-19T09:40:52.946Z,6.83
2019-05-19T09:43:22.624Z,5.53
2019-05-19T09:45:52.392Z,6.10
2019-05-19T09:48:27.662Z,5.30
2019-05-19T09:50:57.375Z,5.62
2019-05-19T09:53:26.354Z,6.35
2019-05-19T09:55:56.664Z,7.08
2019-05-19T09:58:26.377Z,5.97
2019-05-19T10:00:56.084Z,7.30
2019-05-19T10:03:25.786Z,6.95
2019-05-19T10:05:55.514Z,6.40
2019-05-19T10:08:30.596Z,6.40
2019-05-19T10:11:37.557Z,6.28
2019-05-19T10:14:07.329Z,6.70
2019-05-19T10:16:37.250Z,6.10
2019-05-19T10:19:07.005Z,5.97
2019-05-19T10:21:36.759Z,9.03
2019-05-19T10:24:06.449Z,7.47
2019-05-19T10:26:36.107Z,7.70
2019-05-19T10:29:05.770Z,5.67
2019-05-19T10:31:35.464Z,6.95
2019-05-19T10:34:05.539Z,6.75
2019-05-19T10:36:35.299Z,6.60
2019-05-19T10:39:06.265Z,7.17
2019-05-19T10:41:35.947Z,5.70
2019-05-19T10:44:05.814Z,5.47
2019-05-19T10:46:35.564Z,5.92
2019-05-19T10:49:05.288Z,5.80
2019-05-19T10:51:34.983Z,7.03
2019-05-19T10:54:04.962Z,7.15
2019-05-19T10:56:34.594Z,7.28
2019-05-19T10:59:04.389Z,4.80
2019-05-19T11:01:34.167Z,5.37
2019-05-19T11:04:03.923Z,4.97
2019-05-19T11:06:33.578Z,5.25
2019-05-19T11:09:02.706Z,5.53
2019-05-19T11:11:32.334Z,5.70
2019-05-19T11:14:03.408Z,5.05
2019-05-19T11:16:33.083Z,6.45
2019-05-19T11:19:02.870Z,5.50
2019-05-19T11:21:32.496Z,5.62
2019-05-19T11:24:02.198Z,5.80
2019-05-19T11:26:32.488Z,4.50
2019-05-19T11:29:02.167Z,5.00
2019-05-19T11:31:31.807Z,4.90
2019-05-19T11:34:01.567Z,5.08
2019-05-19T11:36:31.209Z,4.95
2019-05-19T11:39:00.890Z,5.05
2019-05-19T11:41:30.576Z,5.22
2019-05-19T11:44:00.572Z,4.60
2019-05-19T11:46:29.614Z,5.15
2019-05-19T11:48:59.310Z,5.50
2019-05-19T11:51:28.986Z,5.75
2019-05-19T11:53:58.711Z,5.80
2019-05-19T11:56:28.365Z,6.65
2019-05-19T11:58:58.094Z,5.00
2019-05-19T12:01:27.795Z,4.28
2019-05-19T12:03:57.632Z,5.87
2019-05-19T12:06:38.516Z,4.65
2019-05-19T12:09:00.919Z,4.60
2019-05-19T12:11:30.590Z,4.20
2019-05-19T12:14:00.314Z,3.20
2019-05-19T12:16:29.953Z,3.85
2019-05-19T12:18:59.632Z,4.40
2019-05-19T12:21:29.252Z,3.27
2019-05-19T12:23:59.554Z,3.30
2019-05-19T12:26:29.200Z,3.62
2019-05-19T12:28:58.931Z,4.72
2019-05-19T12:31:28.607Z,4.92
2019-05-19T12:33:58.330Z,4.03
2019-05-19T12:36:27.985Z,3.95
2019-05-19T12:38:57.757Z,4.65
2019-05-19T12:41:27.456Z,4.87
2019-05-19T12:43:57.120Z,4.22
2019-05-19T12:46:26.742Z,4.33
2019-05-19T12:48:56.427Z,4.37
2019-05-19T12:51:27.073Z,4.65
2019-05-19T12:53:58.851Z,5.33
2019-05-19T12:56:39.021Z,4.95
2019-05-19T12:59:00.005Z,4.08
2019-05-19T13:01:30.034Z,4.80
2019-05-19T13:03:59.704Z,5.97
2019-05-19T13:06:29.494Z,5.12
2019-05-19T13:08:59.215Z,4.37
2019-05-19T13:11:31.236Z,4.65
2019-05-19T13:14:01.030Z,4.92
2019-05-19T13:16:32.705Z,5.72
2019-05-19T13:19:02.418Z,4.60
2019-05-19T13:21:32.122Z,7.50
2019-05-19T13:24:01.821Z,5.55
2019-05-19T13:26:31.476Z,6.00
2019-05-19T13:29:01.161Z,4.10
2019-05-19T13:31:31.874Z,7.25
2019-05-19T13:34:01.546Z,8.10
2019-05-19T13:36:31.185Z,4.50
2019-05-19T13:39:01.136Z,5.00
2019-05-19T13:41:30.824Z,4.58
2019-05-19T13:44:00.540Z,5.50
2019-05-19T13:46:30.258Z,5.37
2019-05-19T13:48:59.933Z,5.50
2019-05-19T13:51:29.569Z,5.58
2019-05-19T13:53:59.291Z,5.25
2019-05-19T13:56:28.933Z,5.42
2019-05-19T13:58:58.620Z,5.87
2019-05-19T14:01:29.095Z,6.47
2019-05-19T14:03:58.875Z,7.20
2019-05-19T14:06:28.655Z,5.55
2019-05-19T14:08:58.368Z,5.75
2019-05-19T14:11:28.133Z,5.50
2019-05-19T14:13:57.848Z,14.15
2019-05-19T14:16:27.574Z,36.03
2019-05-19T14:18:57.249Z,14.28
2019-05-19T14:21:27.040Z,7.62
2019-05-19T14:23:56.765Z,6.08
2019-05-19T14:26:28.248Z,6.45
2019-05-19T14:28:58.436Z,6.33
2019-05-19T14:31:28.184Z,6.58
2019-05-19T14:33:58.752Z,5.45
2019-05-19T14:36:30.077Z,6.00
2019-05-19T14:39:06.019Z,10.05
2019-05-19T14:41:40.655Z,6.00
2019-05-19T14:44:10.327Z,6.20
2019-05-19T14:46:39.968Z,5.42
2019-05-19T14:49:09.634Z,6.58
2019-05-19T14:51:39.244Z,5.50
2019-05-19T14:54:08.977Z,6.72
2019-05-19T14:56:38.676Z,5.47
2019-05-19T14:59:08.415Z,6.72
2019-05-19T15:01:38.097Z,6.00
2019-05-19T15:04:07.698Z,6.40
2019-05-19T15:06:37.382Z,6.20
2019-05-19T15:09:07.893Z,5.65
2019-05-19T15:11:37.655Z,5.58
2019-05-19T15:14:07.312Z,7.12
2019-05-19T15:16:37.143Z,9.48
2019-05-19T15:19:06.834Z,6.58
2019-05-19T15:21:35.919Z,6.47
2019-05-19T15:24:06.160Z,5.90
2019-05-19T15:26:35.852Z,6.47
2019-05-19T15:29:05.557Z,10.35
2019-05-19T15:31:35.451Z,7.67
2019-05-19T15:34:05.178Z,7.10
2019-05-19T15:36:34.848Z,6.12
2019-05-19T15:39:05.143Z,6.00
2019-05-19T15:41:34.884Z,5.92
2019-05-19T15:44:04.556Z,6.15
2019-05-19T15:46:34.216Z,5.95
2019-05-19T15:49:03.864Z,7.17
2019-05-19T15:51:37.391Z,5.58
2019-05-19T15:54:05.238Z,5.60
2019-05-19T15:56:35.007Z,6.28
2019-05-19T15:59:04.718Z,5.60
2019-05-19T16:01:34.366Z,9.30
2019-05-19T16:04:03.960Z,7.10
2019-05-19T16:06:33.782Z,5.72
2019-05-19T16:09:03.736Z,5.33
2019-05-19T16:11:33.894Z,5.90
2019-05-19T16:14:04.648Z,5.78
2019-05-19T16:16:34.607Z,5.42
2019-05-19T16:19:04.337Z,5.47
2019-05-19T16:21:34.392Z,9.05
2019-05-19T16:24:04.262Z,6.30
2019-05-19T16:26:34.212Z,6.15
2019-05-19T16:29:06.369Z,9.50
2019-05-19T16:31:37.878Z,6.42
2019-05-19T16:34:07.561Z,7.00
2019-05-19T16:36:37.385Z,5.72
2019-05-19T16:39:07.793Z,6.55
2019-05-19T16:41:37.575Z,6.40
2019-05-19T16:44:07.278Z,6.87
2019-05-19T16:46:36.957Z,6.85
2019-05-19T16:49:06.612Z,5.92
2019-05-19T16:51:36.759Z,6.67
2019-05-19T16:54:10.770Z,7.53
2019-05-19T16:56:40.476Z,10.03
2019-05-19T16:59:10.123Z,8.53
2019-05-19T17:01:39.786Z,7.72
2019-05-19T17:04:09.417Z,6.92
2019-05-19T17:06:39.128Z,5.08
2019-05-19T17:09:08.795Z,5.20
2019-05-19T17:11:38.518Z,5.70
2019-05-19T17:14:08.160Z,5.17
2019-05-19T17:16:37.792Z,5.17
2019-05-19T17:19:07.521Z,5.03
2019-05-19T17:21:37.170Z,5.25
2019-05-19T17:24:09.174Z,5.15
2019-05-19T17:26:38.925Z,5.33
2019-05-19T17:29:08.652Z,5.90
2019-05-19T17:31:38.491Z,4.80
2019-05-19T17:34:08.128Z,4.45
2019-05-19T17:36:37.851Z,4.65
2019-05-19T17:39:07.925Z,4.08
2019-05-19T17:41:37.598Z,4.35
2019-05-19T17:44:07.708Z,5.10
2019-05-19T17:46:37.809Z,4.50
2019-05-19T17:49:07.396Z,5.65
2019-05-19T17:51:38.282Z,4.45
2019-05-19T17:54:08.189Z,6.65
2019-05-19T17:56:39.444Z,4.83
2019-05-19T17:59:16.524Z,4.65
2019-05-19T18:01:40.339Z,4.85
2019-05-19T18:04:09.980Z,4.70
2019-05-19T18:06:42.421Z,4.40
2019-05-19T18:09:12.092Z,5.60
2019-05-19T18:11:42.073Z,6.03
2019-05-19T18:14:12.165Z,6.15
2019-05-19T18:16:41.968Z,6.05
2019-05-19T18:19:11.614Z,6.78
2019-05-19T18:21:41.408Z,6.10
2019-05-19T18:24:11.171Z,6.05
2019-05-19T18:26:40.854Z,7.33
2019-05-19T18:29:10.459Z,5.62
2019-05-19T18:31:40.109Z,9.20
2019-05-19T18:34:09.731Z,6.00
2019-05-19T18:36:39.414Z,5.87
2019-05-19T18:39:09.578Z,5.70
2019-05-19T18:41:39.285Z,5.50
2019-05-19T18:44:08.907Z,5.17
2019-05-19T18:46:38.522Z,5.87
2019-05-19T18:49:08.178Z,5.97
2019-05-19T18:51:37.893Z,6.00
2019-05-19T18:54:08.474Z,7.22
2019-05-19T18:56:38.509Z,5.78
2019-05-19T18:59:08.730Z,6.10
2019-05-19T19:01:38.529Z,6.37
2019-05-19T19:04:08.436Z,5.97
2019-05-19T19:06:38.114Z,6.83
2019-05-19T19:09:08.034Z,6.30
2019-05-19T19:11:37.891Z,7.35
2019-05-19T19:14:07.593Z,7.08
2019-05-19T19:16:37.220Z,6.42
2019-05-19T19:19:06.877Z,7.25
2019-05-19T19:21:36.542Z,7.78
2019-05-19T19:24:06.443Z,7.10
2019-05-19T19:26:36.553Z,6.25
2019-05-19T19:29:07.019Z,5.15
2019-05-19T19:31:48.161Z,6.70
2019-05-19T19:34:11.081Z,5.65
2019-05-19T19:36:40.774Z,5.85
2019-05-19T19:39:10.953Z,5.47
2019-05-19T19:41:40.653Z,5.92
2019-05-19T19:44:10.416Z,7.22
2019-05-19T19:46:40.093Z,6.05
2019-05-19T19:49:09.744Z,5.10
2019-05-19T19:51:39.788Z,4.40
2019-05-19T19:54:09.463Z,4.72
2019-05-19T19:56:39.075Z,8.10
2019-05-19T19:59:08.784Z,4.80
2019-05-19T20:01:38.429Z,5.30
2019-05-19T20:04:08.200Z,5.55
2019-05-19T20:06:37.802Z,5.62
2019-05-19T20:09:07.780Z,4.97
2019-05-19T20:11:37.423Z,6.92
2019-05-19T20:14:07.382Z,8.03
2019-05-19T20:16:36.986Z,8.13
2019-05-19T20:19:07.294Z,6.35
2019-05-19T20:21:36.913Z,7.05
2019-05-19T20:24:06.723Z,5.80
2019-05-19T20:26:36.435Z,6.78
2019-05-19T20:29:07.033Z,6.70
2019-05-19T20:31:37.064Z,7.15
2019-05-19T20:34:06.893Z,7.10
2019-05-19T20:36:37.647Z,6.12
2019-05-19T20:39:07.720Z,6.95
2019-05-19T20:41:37.746Z,6.62
2019-05-19T20:44:07.446Z,8.70
2019-05-19T20:46:37.195Z,6.58
2019-05-19T20:49:06.863Z,7.40
2019-05-19T20:51:36.848Z,7.47
2019-05-19T20:54:06.976Z,9.78
2019-05-19T20:56:36.680Z,7.62
2019-05-19T20:59:07.142Z,8.75
2019-05-19T21:01:40.002Z,7.85
2019-05-19T21:04:09.750Z,8.63
2019-05-19T21:06:39.611Z,9.03
2019-05-19T21:09:09.406Z,7.97
2019-05-19T21:11:39.127Z,9.45
2019-05-19T21:14:08.825Z,8.98
2019-05-19T21:16:38.497Z,10.75
2019-05-19T21:19:08.179Z,10.28
2019-05-19T21:21:37.867Z,9.00
2019-05-19T21:24:07.568Z,10.35
2019-05-19T21:26:37.433Z,11.25
2019-05-19T21:29:07.076Z,10.75
2019-05-19T21:31:54.727Z,9.90
2019-05-19T21:34:27.165Z,9.80
2019-05-19T21:36:57.429Z,11.18
2019-05-19T21:39:27.171Z,10.32
2019-05-19T21:41:56.975Z,12.00
2019-05-19T21:44:26.661Z,11.68
2019-05-19T21:46:56.292Z,11.70
2019-05-19T21:49:25.940Z,11.65
2019-05-19T21:51:55.543Z,11.73
2019-05-19T21:54:25.191Z,13.53
2019-05-19T21:56:55.239Z,12.37
2019-05-19T21:59:25.627Z,12.60
2019-05-19T22:01:55.229Z,14.90
2019-05-19T22:04:25.428Z,13.50
2019-05-19T22:07:26.266Z,13.45
2019-05-19T22:09:55.984Z,13.40
2019-05-19T22:12:25.722Z,13.48
2019-05-19T22:14:55.465Z,14.47
2019-05-19T22:17:25.231Z,12.93
2019-05-19T22:19:54.921Z,14.58
2019-05-19T22:22:24.523Z,13.62
2019-05-19T22:24:54.165Z,15.20
2019-05-19T22:27:26.414Z,15.93
2019-05-19T22:29:56.102Z,15.93
2019-05-19T22:32:25.715Z,16.32
2019-05-19T22:34:55.460Z,17.23
2019-05-19T22:37:25.211Z,16.65
2019-05-19T22:39:54.967Z,16.17
2019-05-19T22:42:24.628Z,15.63
2019-05-19T22:45:14.270Z,18.45
2019-05-19T22:47:43.854Z,18.95
2019-05-19T22:50:13.788Z,20.25
2019-05-19T22:52:43.445Z,19.85
2019-05-19T22:55:17.417Z,22.70
2019-05-19T22:57:47.109Z,24.07
2019-05-19T23:00:18.073Z,21.85
2019-05-19T23:02:47.770Z,23.30
2019-05-19T23:05:17.824Z,22.80
2019-05-19T23:07:47.469Z,22.80
2019-05-19T23:10:17.404Z,23.22
2019-05-19T23:12:47.051Z,24.45
2019-05-19T23:15:17.391Z,26.10
2019-05-19T23:17:47.067Z,24.57
2019-05-19T23:20:19.854Z,23.92
2019-05-19T23:22:49.475Z,24.47
2019-05-19T23:25:19.145Z,24.60
2019-05-19T23:27:48.853Z,27.42
2019-05-19T23:30:18.831Z,27.30
2019-05-19T23:32:48.415Z,28.90
2019-05-19T23:35:18.073Z,26.45
2019-05-19T23:37:47.695Z,28.32
2019-05-19T23:40:17.510Z,28.38
2019-05-19T23:42:47.145Z,30.43
2019-05-19T23:45:16.925Z,30.95
2019-05-19T23:47:47.146Z,31.93
2019-05-19T23:50:16.813Z,31.10
2019-05-19T23:52:46.505Z,32.70
2019-05-19T23:55:16.830Z,31.00
2019-05-19T23:57:46.495Z,30.72
